createdAt,value
2018-12-03T00:00:20.247Z,30.73
2018-12-03T00:02:48.515Z,31.13
2018-12-03T00:05:16.664Z,34.23
2018-12-03T00:07:44.823Z,33.83
2018-12-03T00:10:13.026Z,31.37
2018-12-03T00:12:41.170Z,33.40
2018-12-03T00:15:12.282Z,33.03
2018-12-03T00:17:40.409Z,34.63
2018-12-03T00:20:09.670Z,32.13
2018-12-03T00:22:38.825Z,34.33
2018-12-03T00:25:07.951Z,32.67
2018-12-03T00:27:36.318Z,30.47
2018-12-03T00:30:07.035Z,24.43
2018-12-03T00:32:35.207Z,29.97
2018-12-03T00:35:03.771Z,28.73
2018-12-03T00:37:32.325Z,26.53
2018-12-03T00:40:00.596Z,26.40
2018-12-03T00:42:28.704Z,24.87
2018-12-03T00:44:56.833Z,27.97
2018-12-03T00:47:25.266Z,25.77
2018-12-03T00:49:53.640Z,24.13
2018-12-03T00:52:22.624Z,25.43
2018-12-03T00:54:50.640Z,21.47
2018-12-03T00:57:18.613Z,24.03
2018-12-03T00:59:46.664Z,24.93
2018-12-03T01:02:20.207Z,21.10
2018-12-03T01:04:48.247Z,23.00
2018-12-03T01:07:16.441Z,25.30
2018-12-03T01:09:44.494Z,19.80
2018-12-03T01:12:12.566Z,20.97
2018-12-03T01:14:40.652Z,19.47
2018-12-03T01:17:09.019Z,23.17
2018-12-03T01:19:37.183Z,19.57
2018-12-03T01:22:05.693Z,19.80
2018-12-03T01:24:33.773Z,21.03
2018-12-03T01:27:02.047Z,21.87
2018-12-03T01:29:30.281Z,17.60
2018-12-03T01:31:58.502Z,20.10
2018-12-03T01:34:26.667Z,19.80
2018-12-03T01:36:54.840Z,18.90
2018-12-03T01:39:22.977Z,19.07
2018-12-03T01:41:51.260Z,18.87
2018-12-03T01:44:19.439Z,17.13
2018-12-03T01:46:47.521Z,19.30
2018-12-03T01:49:15.524Z,18.17
2018-12-03T01:51:43.850Z,16.87
2018-12-03T01:54:12.219Z,17.63
2018-12-03T01:56:40.354Z,16.80
2018-12-03T01:59:08.622Z,14.53
2018-12-03T02:01:37.125Z,15.70
2018-12-03T02:04:05.504Z,15.20
2018-12-03T02:06:33.618Z,13.60
2018-12-03T02:09:01.887Z,15.70
2018-12-03T02:11:30.034Z,12.90
2018-12-03T02:13:58.218Z,12.37
2018-12-03T02:16:26.322Z,14.90
2018-12-03T02:18:54.366Z,16.03
2018-12-03T02:21:22.596Z,14.60
2018-12-03T02:23:50.621Z,16.27
2018-12-03T02:26:18.480Z,14.83
2018-12-03T02:28:46.540Z,15.73
2018-12-03T02:31:14.803Z,13.53
2018-12-03T02:33:43.179Z,12.47
2018-12-03T02:36:11.815Z,11.23
2018-12-03T02:38:39.948Z,11.73
2018-12-03T02:41:08.046Z,10.60
2018-12-03T02:43:36.495Z,11.07
2018-12-03T02:46:04.677Z,11.33
2018-12-03T02:48:32.802Z,11.47
2018-12-03T02:51:00.670Z,10.07
2018-12-03T02:53:28.687Z,11.43
2018-12-03T02:55:56.680Z,10.33
2018-12-03T02:58:25.138Z,11.60
2018-12-03T03:00:53.634Z,10.27
2018-12-03T03:03:21.966Z,10.13
2018-12-03T03:05:50.277Z,9.93
2018-12-03T03:08:18.392Z,10.87
2018-12-03T03:10:46.442Z,8.60
2018-12-03T03:13:14.667Z,8.27
2018-12-03T03:15:42.842Z,8.90
2018-12-03T03:18:10.909Z,7.27
2018-12-03T03:20:39.323Z,8.13
2018-12-03T03:23:07.434Z,7.37
2018-12-03T03:25:35.565Z,6.67
2018-12-03T03:28:03.863Z,6.23
2018-12-03T03:30:32.068Z,7.03
2018-12-03T03:33:00.324Z,6.80
2018-12-03T03:35:29.302Z,6.30
2018-12-03T03:37:57.456Z,5.40
2018-12-03T03:40:25.492Z,6.07
2018-12-03T03:42:53.604Z,6.50
2018-12-03T03:45:23.171Z,6.60
2018-12-03T03:47:51.355Z,5.77
2018-12-03T03:50:19.495Z,5.73
2018-12-03T03:52:47.741Z,5.40
2018-12-03T03:55:15.996Z,6.00
2018-12-03T03:57:44.037Z,5.27
2018-12-03T04:00:13.192Z,4.93
2018-12-03T04:02:41.279Z,6.13
2018-12-03T04:05:12.078Z,5.20
2018-12-03T04:07:40.593Z,5.63
2018-12-03T04:10:10.795Z,5.30
2018-12-03T04:12:39.443Z,5.40
2018-12-03T04:15:09.410Z,5.90
2018-12-03T04:17:37.632Z,5.67
2018-12-03T04:20:10.814Z,6.00
2018-12-03T04:22:39.114Z,5.07
2018-12-03T04:25:08.622Z,5.40
2018-12-03T04:27:36.898Z,5.57
2018-12-03T04:30:08.731Z,6.13
2018-12-03T04:32:36.733Z,5.80
2018-12-03T04:35:05.547Z,6.00
2018-12-03T04:37:33.857Z,6.33
2018-12-03T04:40:02.023Z,5.60
2018-12-03T04:42:30.168Z,5.60
2018-12-03T04:44:58.218Z,6.83
2018-12-03T04:47:26.283Z,6.13
2018-12-03T04:49:54.598Z,6.87
2018-12-03T04:52:22.927Z,6.13
2018-12-03T04:54:51.105Z,6.00
2018-12-03T04:57:19.236Z,7.53
2018-12-03T04:59:47.333Z,6.20
2018-12-03T05:02:15.486Z,7.07
2018-12-03T05:04:43.587Z,6.10
2018-12-03T05:07:11.783Z,5.97
2018-12-03T05:09:39.832Z,6.70
2018-12-03T05:12:07.923Z,6.47
2018-12-03T05:14:36.156Z,6.97
2018-12-03T05:17:04.423Z,7.67
2018-12-03T05:19:32.546Z,6.23
2018-12-03T05:22:00.669Z,6.90
2018-12-03T05:24:28.758Z,7.00
2018-12-03T05:26:56.917Z,7.03
2018-12-03T05:29:25.198Z,6.70
2018-12-03T05:31:53.628Z,7.23
2018-12-03T05:34:21.880Z,7.47
2018-12-03T05:36:50.041Z,8.10
2018-12-03T05:39:18.118Z,8.10
2018-12-03T05:41:46.233Z,8.17
2018-12-03T05:44:14.432Z,9.13
2018-12-03T05:46:42.771Z,9.43
2018-12-03T05:49:11.228Z,9.13
2018-12-03T05:51:39.371Z,8.93
2018-12-03T05:54:07.543Z,9.40
2018-12-03T05:56:35.825Z,9.90
2018-12-03T05:59:04.524Z,9.47
2018-12-03T06:01:33.481Z,9.87
2018-12-03T06:04:02.663Z,10.53
2018-12-03T06:06:31.386Z,8.93
2018-12-03T06:08:59.749Z,10.20
2018-12-03T06:11:28.148Z,11.50
2018-12-03T06:13:58.347Z,9.63
2018-12-03T06:16:26.516Z,10.10
2018-12-03T06:18:55.339Z,10.30
2018-12-03T06:21:23.851Z,9.67
2018-12-03T06:23:54.290Z,9.80
2018-12-03T06:26:23.280Z,9.70
2018-12-03T06:28:51.921Z,9.37
2018-12-03T06:31:22.292Z,9.43
2018-12-03T06:33:51.359Z,9.63
2018-12-03T06:36:19.554Z,10.87
2018-12-03T06:38:48.014Z,9.43
2018-12-03T06:41:16.535Z,9.37
2018-12-03T06:43:44.884Z,11.27
2018-12-03T06:46:13.743Z,10.73
2018-12-03T06:48:42.541Z,10.73
2018-12-03T06:51:10.961Z,9.30
2018-12-03T06:53:39.254Z,9.87
2018-12-03T06:56:07.521Z,10.40
2018-12-03T06:58:35.809Z,10.80
2018-12-03T07:01:04.240Z,10.97
2018-12-03T07:03:32.523Z,9.63
2018-12-03T07:06:01.072Z,9.20
2018-12-03T07:08:29.385Z,10.37
2018-12-03T07:10:57.821Z,11.20
2018-12-03T07:13:26.956Z,10.87
2018-12-03T07:15:57.148Z,11.40
2018-12-03T07:18:25.844Z,11.07
2018-12-03T07:20:54.067Z,11.57
2018-12-03T07:23:22.510Z,11.30
2018-12-03T07:25:51.723Z,9.50
2018-12-03T07:28:20.134Z,10.93
2018-12-03T07:30:51.081Z,10.73
2018-12-03T07:33:19.128Z,10.40
2018-12-03T07:35:47.371Z,10.80
2018-12-03T07:38:15.822Z,9.30
2018-12-03T07:40:44.033Z,10.13
2018-12-03T07:43:12.592Z,8.83
2018-12-03T07:45:40.762Z,8.30
2018-12-03T07:48:09.632Z,8.80
2018-12-03T07:50:38.042Z,8.97
2018-12-03T07:53:06.638Z,9.63
2018-12-03T07:55:34.752Z,8.53
2018-12-03T07:58:08.030Z,7.63
2018-12-03T08:00:47.512Z,9.93
2018-12-03T08:03:15.849Z,9.47
2018-12-03T08:05:44.394Z,10.37
2018-12-03T08:08:12.920Z,9.17
2018-12-03T08:10:42.882Z,9.47
2018-12-03T08:13:12.520Z,8.90
2018-12-03T08:15:40.622Z,8.50
2018-12-03T08:18:11.828Z,8.13
2018-12-03T08:20:49.222Z,9.23
2018-12-03T08:23:24.244Z,10.60
2018-12-03T08:25:52.480Z,8.63
2018-12-03T08:28:20.458Z,8.57
2018-12-03T08:30:48.750Z,8.83
2018-12-03T08:33:16.846Z,9.20
2018-12-03T08:35:45.079Z,8.30
2018-12-03T08:38:13.327Z,8.73
2018-12-03T08:40:41.506Z,8.40
2018-12-03T08:43:09.823Z,8.03
2018-12-03T08:45:37.975Z,8.47
2018-12-03T08:48:06.800Z,9.00
2018-12-03T08:50:35.071Z,7.73
2018-12-03T08:53:03.423Z,7.57
2018-12-03T08:55:31.722Z,8.90
2018-12-03T08:57:59.769Z,9.67
2018-12-03T09:00:29.160Z,8.37
2018-12-03T09:03:06.620Z,9.70
2018-12-03T09:05:38.113Z,8.57
2018-12-03T09:08:08.037Z,8.80
2018-12-03T09:10:36.840Z,8.17
2018-12-03T09:13:08.875Z,7.87
2018-12-03T09:15:37.194Z,8.40
2018-12-03T09:18:05.625Z,7.53
2018-12-03T09:20:33.864Z,6.70
2018-12-03T09:23:02.419Z,8.03
2018-12-03T09:25:30.577Z,8.07
2018-12-03T09:27:58.876Z,7.33
2018-12-03T09:30:27.892Z,8.33
2018-12-03T09:32:55.458Z,7.50
2018-12-03T09:35:23.792Z,6.93
2018-12-03T09:37:52.285Z,7.17
2018-12-03T09:40:24.296Z,8.10
2018-12-03T09:42:52.807Z,7.23
2018-12-03T09:47:55.019Z,6.77
2018-12-03T09:50:25.972Z,6.43
2018-12-03T09:52:54.462Z,6.07
2018-12-03T09:55:24.374Z,6.67
2018-12-03T09:57:59.175Z,7.27
2018-12-03T10:00:27.587Z,6.47
2018-12-03T10:02:57.163Z,8.00
2018-12-03T10:05:27.506Z,6.93
2018-12-03T10:07:55.806Z,8.33
2018-12-03T10:10:24.389Z,7.50
2018-12-03T10:12:52.494Z,6.37
2018-12-03T10:15:26.487Z,6.47
2018-12-03T10:17:55.858Z,6.87
2018-12-03T10:20:24.539Z,8.10
2018-12-03T10:22:52.953Z,7.70
2018-12-03T10:25:21.368Z,6.30
2018-12-03T10:27:50.005Z,7.73
2018-12-03T10:30:25.912Z,8.10
2018-12-03T10:32:54.348Z,8.63
2018-12-03T10:35:24.233Z,9.10
2018-12-03T10:37:52.821Z,8.33
2018-12-03T10:40:22.105Z,7.73
2018-12-03T10:42:50.709Z,8.37
2018-12-03T10:45:26.277Z,7.20
2018-12-03T10:47:57.309Z,7.77
2018-12-03T10:50:25.919Z,8.00
2018-12-03T10:52:54.435Z,8.53
2018-12-03T10:55:23.742Z,7.90
2018-12-03T10:57:51.953Z,8.73
2018-12-03T11:00:25.784Z,8.13
2018-12-03T11:03:00.807Z,9.23
2018-12-03T11:05:35.903Z,7.80
2018-12-03T11:08:04.163Z,9.73
2018-12-03T11:10:34.146Z,8.70
2018-12-03T11:13:02.627Z,9.27
2018-12-03T11:15:31.212Z,9.47
2018-12-03T11:18:01.134Z,9.47
2018-12-03T11:20:29.295Z,8.97
2018-12-03T11:22:58.114Z,8.53
2018-12-03T11:25:28.765Z,8.23
2018-12-03T11:27:58.263Z,9.07
2018-12-03T11:30:26.477Z,8.60
2018-12-03T11:32:54.655Z,8.40
2018-12-03T11:35:25.571Z,9.07
2018-12-03T11:37:58.308Z,8.77
2018-12-03T11:40:37.426Z,11.10
2018-12-03T11:43:06.314Z,10.37
2018-12-03T11:45:34.772Z,8.80
2018-12-03T11:48:03.370Z,10.13
2018-12-03T11:50:32.333Z,8.57
2018-12-03T11:53:01.979Z,9.37
2018-12-03T11:55:30.781Z,10.33
2018-12-03T11:58:00.042Z,9.83
2018-12-03T12:00:28.324Z,9.43
2018-12-03T12:02:56.758Z,9.47
2018-12-03T12:05:26.264Z,9.50
2018-12-03T12:07:55.244Z,9.57
2018-12-03T12:10:24.724Z,12.43
2018-12-03T12:12:52.816Z,9.23
2018-12-03T12:15:20.824Z,9.57
2018-12-03T12:17:49.189Z,8.83
2018-12-03T12:20:17.436Z,9.27
2018-12-03T12:22:45.670Z,9.43
2018-12-03T12:25:14.061Z,9.73
2018-12-03T12:27:45.831Z,8.40
2018-12-03T12:30:15.089Z,8.63
2018-12-03T12:32:43.315Z,8.23
2018-12-03T12:35:11.704Z,9.37
2018-12-03T12:37:39.667Z,9.10
2018-12-03T12:40:10.490Z,8.87
2018-12-03T12:42:38.943Z,7.83
2018-12-03T12:45:26.005Z,9.37
2018-12-03T12:47:54.329Z,9.83
2018-12-03T12:50:22.402Z,8.20
2018-12-03T12:52:50.558Z,7.07
2018-12-03T12:55:18.793Z,7.63
2018-12-03T12:57:46.921Z,9.03
2018-12-03T13:00:16.439Z,7.83
2018-12-03T13:02:46.874Z,8.33
2018-12-03T13:05:14.984Z,7.40
2018-12-03T13:07:43.420Z,9.00
2018-12-03T13:10:13.651Z,8.47
2018-12-03T13:12:42.185Z,7.20
2018-12-03T13:15:12.843Z,7.83
2018-12-03T13:17:43.761Z,7.90
2018-12-03T13:20:15.149Z,7.27
2018-12-03T13:22:43.393Z,6.73
2018-12-03T13:25:16.389Z,7.00
2018-12-03T13:27:45.379Z,7.20
2018-12-03T13:30:15.065Z,7.70
2018-12-03T13:32:43.214Z,7.07
2018-12-03T13:35:12.562Z,6.90
2018-12-03T13:37:40.854Z,8.00
2018-12-03T13:40:13.645Z,6.63
2018-12-03T13:42:41.808Z,8.67
2018-12-03T13:45:16.753Z,6.00
2018-12-03T13:47:44.979Z,6.30
2018-12-03T13:50:14.495Z,6.23
2018-12-03T13:52:42.974Z,6.93
2018-12-03T13:55:13.122Z,6.37
2018-12-03T13:57:41.429Z,6.70
2018-12-03T14:00:14.877Z,8.13
2018-12-03T14:02:44.775Z,6.33
2018-12-03T14:05:14.398Z,6.43
2018-12-03T14:07:51.823Z,7.70
2018-12-03T14:10:43.367Z,6.77
2018-12-03T14:13:45.734Z,6.73
2018-12-03T14:16:19.437Z,6.37
2018-12-03T14:18:51.422Z,6.80
2018-12-03T14:21:24.472Z,7.80
2018-12-03T14:23:54.782Z,7.20
2018-12-03T14:26:22.939Z,7.43
2018-12-03T14:28:51.869Z,7.20
2018-12-03T14:31:20.230Z,7.83
2018-12-03T14:33:48.364Z,7.90
2018-12-03T14:36:16.551Z,7.87
2018-12-03T14:38:44.559Z,8.90
2018-12-03T14:41:12.610Z,8.80
2018-12-03T14:43:40.699Z,7.93
2018-12-03T14:46:08.882Z,7.17
2018-12-03T14:48:37.262Z,7.60
2018-12-03T14:51:05.362Z,8.00
2018-12-03T14:53:33.513Z,6.67
2018-12-03T14:56:01.614Z,7.20
2018-12-03T14:58:29.723Z,6.70
2018-12-03T15:00:57.726Z,7.67
2018-12-03T15:03:25.820Z,7.67
2018-12-03T15:05:53.990Z,7.27
2018-12-03T15:08:22.155Z,6.97
2018-12-03T15:10:50.162Z,7.70
2018-12-03T15:13:18.214Z,7.67
2018-12-03T15:15:46.699Z,8.03
2018-12-03T15:18:14.900Z,6.80
2018-12-03T15:20:43.574Z,6.50
2018-12-03T15:23:11.654Z,6.00
2018-12-03T15:25:39.947Z,6.87
2018-12-03T15:28:08.165Z,6.67
2018-12-03T15:30:36.177Z,5.53
2018-12-03T15:33:04.238Z,5.30
2018-12-03T15:35:32.259Z,6.10
2018-12-03T15:38:00.383Z,6.03
2018-12-03T15:40:29.534Z,6.23
2018-12-03T15:42:57.632Z,7.07
2018-12-03T15:45:26.083Z,4.80
2018-12-03T15:47:54.440Z,5.77
2018-12-03T15:50:22.530Z,5.70
2018-12-03T15:52:50.612Z,5.73
2018-12-03T15:55:18.790Z,6.03
2018-12-03T15:57:47.033Z,5.43
2018-12-03T16:00:15.114Z,5.63
2018-12-03T16:02:43.180Z,5.97
2018-12-03T16:05:14.343Z,6.00
2018-12-03T16:07:42.530Z,5.93
2018-12-03T16:10:12.548Z,6.90
2018-12-03T16:12:40.994Z,5.57
2018-12-03T16:15:09.313Z,5.93
2018-12-03T16:17:37.565Z,5.50
2018-12-03T16:20:07.561Z,5.70
2018-12-03T16:22:35.594Z,6.80
2018-12-03T16:25:04.369Z,4.97
2018-12-03T16:27:32.617Z,5.53
2018-12-03T16:30:00.709Z,5.30
2018-12-03T16:32:29.518Z,5.43
2018-12-03T16:34:57.766Z,5.10
2018-12-03T16:37:25.964Z,5.20
2018-12-03T16:39:54.282Z,5.67
2018-12-03T16:42:22.894Z,8.83
2018-12-03T16:44:51.280Z,5.00
2018-12-03T16:47:19.280Z,5.00
2018-12-03T16:49:47.321Z,5.17
2018-12-03T16:52:15.766Z,5.20
2018-12-03T16:54:43.950Z,4.80
2018-12-03T16:57:12.023Z,5.40
2018-12-03T16:59:40.324Z,5.27
2018-12-03T17:02:08.441Z,5.17
2018-12-03T17:04:36.581Z,4.23
2018-12-03T17:07:04.945Z,5.60
2018-12-03T17:09:33.053Z,6.67
2018-12-03T17:12:01.334Z,5.63
2018-12-03T17:14:29.572Z,6.30
2018-12-03T17:16:57.795Z,7.17
2018-12-03T17:19:26.349Z,5.93
2018-12-03T17:24:11.531Z,11.03
2018-12-03T17:26:40.864Z,6.30
2018-12-03T17:29:09.109Z,5.07
2018-12-03T17:31:37.291Z,5.87
2018-12-03T17:34:05.429Z,5.33
2018-12-03T17:36:33.508Z,5.80
2018-12-03T17:39:01.687Z,7.23
2018-12-03T17:41:29.780Z,5.47
2018-12-03T17:43:58.126Z,6.20
2018-12-03T17:46:26.293Z,6.47
2018-12-03T17:48:54.513Z,7.57
2018-12-03T17:51:22.610Z,7.50
2018-12-03T17:53:50.923Z,6.37
2018-12-03T17:56:19.103Z,5.57
2018-12-03T17:58:47.101Z,6.57
2018-12-03T18:01:15.601Z,5.10
2018-12-03T18:03:43.635Z,4.50
2018-12-03T18:06:16.945Z,4.40
2018-12-03T18:08:39.996Z,3.93
2018-12-03T18:11:08.390Z,4.70
2018-12-03T18:13:36.623Z,3.23
2018-12-03T18:16:05.067Z,3.07
2018-12-03T18:18:33.063Z,3.40
2018-12-03T18:21:01.027Z,3.43
2018-12-03T18:23:29.235Z,3.57
2018-12-03T18:25:57.883Z,2.83
2018-12-03T18:28:26.139Z,3.03
2018-12-03T18:30:54.953Z,2.80
2018-12-03T18:33:23.225Z,3.27
2018-12-03T18:35:51.411Z,2.80
2018-12-03T18:38:20.428Z,2.77
2018-12-03T18:40:48.497Z,2.43
2018-12-03T18:43:16.618Z,3.07
2018-12-03T18:45:44.751Z,3.20
2018-12-03T18:48:14.106Z,2.30
2018-12-03T18:50:44.621Z,2.87
2018-12-03T18:53:23.133Z,2.63
2018-12-03T18:55:51.351Z,2.30
2018-12-03T18:58:25.273Z,2.83
2018-12-03T19:00:53.315Z,2.80
2018-12-03T19:03:21.483Z,18.17
2018-12-03T19:05:49.679Z,2.80
2018-12-03T19:08:17.956Z,2.67
2018-12-03T19:10:46.154Z,2.53
2018-12-03T19:13:14.765Z,2.87
2018-12-03T19:15:43.113Z,2.57
2018-12-03T19:18:13.839Z,2.40
2018-12-03T19:20:42.223Z,3.00
2018-12-03T19:23:10.541Z,2.93
2018-12-03T19:25:38.739Z,3.03
2018-12-03T19:28:07.427Z,3.53
2018-12-03T19:30:35.633Z,3.90
2018-12-03T19:33:04.081Z,3.63
2018-12-03T19:35:32.193Z,4.67
2018-12-03T19:38:00.542Z,4.30
2018-12-03T19:40:28.800Z,4.67
2018-12-03T19:42:59.923Z,4.80
2018-12-03T19:45:28.404Z,5.33
2018-12-03T19:47:56.910Z,5.23
2018-12-03T19:50:27.125Z,4.63
2018-12-03T19:52:55.570Z,5.67
2018-12-03T19:55:23.982Z,5.83
2018-12-03T19:58:01.603Z,5.90
2018-12-03T20:00:31.596Z,5.43
2018-12-03T20:02:59.904Z,5.97
2018-12-03T20:05:30.516Z,6.67
2018-12-03T20:07:58.712Z,6.57
2018-12-03T20:10:27.048Z,5.83
2018-12-03T20:12:55.351Z,6.87
2018-12-03T20:15:23.893Z,6.77
2018-12-03T20:17:52.573Z,5.50
2018-12-03T20:20:25.620Z,5.80
2018-12-03T20:23:01.028Z,9.40
2018-12-03T20:25:41.629Z,7.83
2018-12-03T20:28:16.845Z,5.93
2018-12-03T20:32:19.747Z,5.37
2018-12-03T20:34:46.517Z,5.40
2018-12-03T20:37:18.510Z,5.73
2018-12-03T20:39:49.261Z,4.80
2018-12-03T20:42:19.841Z,4.33
2018-12-03T20:44:46.526Z,4.27
2018-12-03T20:47:13.116Z,4.67
2018-12-03T20:49:39.760Z,3.80
2018-12-03T20:52:06.849Z,3.90
2018-12-03T20:54:33.827Z,3.87
2018-12-03T20:57:01.833Z,3.70
2018-12-03T20:59:28.310Z,4.17
2018-12-03T21:01:58.288Z,3.80
2018-12-03T21:04:28.069Z,3.80
2018-12-03T21:09:26.194Z,3.60
2018-12-03T21:11:52.925Z,3.23
2018-12-03T21:14:20.257Z,5.40
2018-12-03T21:16:46.828Z,4.27
2018-12-03T21:19:13.277Z,4.13
2018-12-03T21:21:40.156Z,4.47
2018-12-03T21:24:06.872Z,4.70
2018-12-03T21:26:33.328Z,4.47
2018-12-03T21:28:59.761Z,4.17
2018-12-03T21:31:26.436Z,4.27
2018-12-03T21:33:52.915Z,4.20
2018-12-03T21:36:19.895Z,4.50
2018-12-03T21:38:46.519Z,4.87
2018-12-03T21:41:12.897Z,4.23
2018-12-03T21:43:39.311Z,4.20
2018-12-03T21:46:05.740Z,3.87
2018-12-03T21:48:32.334Z,4.70
2018-12-03T21:50:58.803Z,4.37
2018-12-03T21:53:25.348Z,4.60
2018-12-03T21:55:52.071Z,5.27
2018-12-03T21:58:18.448Z,4.03
2018-12-03T22:00:45.084Z,4.53
2018-12-03T22:03:11.525Z,4.60
2018-12-03T22:05:38.118Z,4.03
2018-12-03T22:08:04.613Z,4.97
2018-12-03T22:10:31.103Z,4.60
2018-12-03T22:12:58.166Z,4.20
2018-12-03T22:15:24.816Z,4.47
2018-12-03T22:17:51.412Z,4.50
2018-12-03T22:20:17.870Z,3.70
2018-12-03T22:22:44.611Z,4.07
2018-12-03T22:25:11.036Z,4.50
2018-12-03T22:27:37.408Z,3.63
2018-12-03T22:30:05.182Z,3.87
2018-12-03T22:32:31.766Z,4.30
2018-12-03T22:34:58.162Z,3.60
2018-12-03T22:37:24.951Z,3.53
2018-12-03T22:39:51.523Z,4.20
2018-12-03T22:42:18.018Z,3.37
2018-12-03T22:44:44.462Z,4.10
2018-12-03T22:47:10.894Z,4.40
2018-12-03T22:49:37.428Z,3.80
2018-12-03T22:52:03.869Z,3.87
2018-12-03T22:54:30.310Z,3.33
2018-12-03T22:56:56.733Z,4.20
2018-12-03T22:59:23.136Z,4.10
2018-12-03T23:01:49.558Z,4.20
2018-12-03T23:04:15.905Z,4.27
2018-12-03T23:06:42.743Z,3.87
2018-12-03T23:09:09.081Z,4.00
2018-12-03T23:11:35.524Z,4.10
2018-12-03T23:14:01.948Z,4.40
2018-12-03T23:16:28.398Z,3.80
2018-12-03T23:18:54.778Z,3.50
2018-12-03T23:21:21.145Z,3.90
2018-12-03T23:23:47.547Z,3.60
2018-12-03T23:26:13.928Z,4.07
2018-12-03T23:28:40.260Z,4.33
2018-12-03T23:31:06.680Z,3.83
2018-12-03T23:33:33.071Z,4.07
2018-12-03T23:35:59.470Z,4.53
2018-12-03T23:38:25.863Z,3.63
2018-12-03T23:40:52.355Z,4.20
2018-12-03T23:43:18.697Z,3.90
2018-12-03T23:45:45.142Z,4.33
2018-12-03T23:48:11.476Z,4.60
2018-12-03T23:50:37.945Z,4.10
2018-12-03T23:53:04.420Z,4.30
2018-12-03T23:55:30.832Z,3.93
2018-12-03T23:57:57.286Z,4.27
